Time;durP1;ratioP1;P1;durP2;ratioP2;P2;SDS_P1;SDS_P2;PMS_P1;PMS_P2;Temp;Humidity;BMP_temperature;BMP_pressure;BME280_temperature;BME280_humidity;BME280_pressure;Samples;Min_cycle;Max_cycle;Signal;HPM_P1;HPM_P2
2022/01/15 00:00:06;;;;;;;32.95;18.17;;;;;;;;;;5096090;28;20149;-68
2022/01/15 00:02:32;;;;;;;32.05;19.00;;;;;;;;;;5095410;28;20091;-69
2022/01/15 00:04:59;;;;;;;28.10;15.93;;;;;;;;;;5096820;28;20095;-69
2022/01/15 00:07:25;;;;;;;35.78;19.63;;;;;;;;;;5096223;28;20054;-69
2022/01/15 00:09:52;;;;;;;27.35;14.27;;;;;;;;;;5096758;28;20021;-69
2022/01/15 00:12:18;;;;;;;33.15;16.60;;;;;;;;;;5095206;28;20024;-69
2022/01/15 00:14:45;;;;;;;27.15;15.07;;;;;;;;;;5096015;28;20027;-69
2022/01/15 00:17:19;;;;;;;23.20;11.60;;;;;;;;;;5095049;28;20077;-68
2022/01/15 00:19:46;;;;;;;27.67;16.63;;;;;;;;;;5096577;28;20107;-69
2022/01/15 00:22:15;;;;;;;41.28;21.52;;;;;;;;;;5096029;28;20031;-69
2022/01/15 00:24:41;;;;;;;41.78;20.88;;;;;;;;;;5096306;28;20372;-69
2022/01/15 00:27:08;;;;;;;34.40;19.08;;;;;;;;;;5094494;28;20024;-69
2022/01/15 00:29:34;;;;;;;34.28;18.88;;;;;;;;;;5096326;28;20021;-68
2022/01/15 00:32:01;;;;;;;35.00;20.25;;;;;;;;;;5095643;28;20028;-68
2022/01/15 00:34:28;;;;;;;36.22;19.33;;;;;;;;;;5095707;28;20028;-68
2022/01/15 00:36:54;;;;;;;39.75;21.30;;;;;;;;;;5096179;28;20028;-69
2022/01/15 00:39:21;;;;;;;29.60;16.73;;;;;;;;;;5095931;28;20020;-69
2022/01/15 00:41:47;;;;;;;27.02;15.57;;;;;;;;;;5095612;28;20030;-69
2022/01/15 00:44:14;;;;;;;27.83;15.95;;;;;;;;;;5095946;28;20020;-69
2022/01/15 00:46:40;;;;;;;26.33;14.00;;;;;;;;;;5095810;28;20024;-70
2022/01/15 00:49:06;;;;;;;28.13;13.38;;;;;;;;;;5095461;28;20016;-68
2022/01/15 00:51:32;;;;;;;22.88;12.20;;;;;;;;;;5095735;28;20024;-68
2022/01/15 00:53:59;;;;;;;24.33;13.88;;;;;;;;;;5095663;28;20388;-69
2022/01/15 00:56:25;;;;;;;32.88;18.88;;;;;;;;;;5095499;28;20099;-68
2022/01/15 00:58:52;;;;;;;34.67;20.13;;;;;;;;;;5095775;28;20043;-68
2022/01/15 01:01:20;;;;;;;31.13;17.35;;;;;;;;;;5095309;28;20399;-68
2022/01/15 01:03:47;;;;;;;32.42;17.25;;;;;;;;;;5095105;28;20108;-69
2022/01/15 01:06:13;;;;;;;30.15;14.68;;;;;;;;;;5095473;28;20031;-68
2022/01/15 01:08:40;;;;;;;26.10;15.18;;;;;;;;;;5095557;28;20027;-68
2022/01/15 01:11:15;;;;;;;21.90;12.30;;;;;;;;;;5094964;28;20388;-69
2022/01/15 01:20:04;;;;;;;20.10;10.65;;;;;;;;;;5094052;28;20020;-68
2022/01/15 01:24:30;;;;;;;23.00;10.67;;;;;;;;;;5094828;28;20025;-69
2022/01/15 01:27:04;;;;;;;36.08;17.77;;;;;;;;;;5095199;28;20073;-68
2022/01/15 01:29:42;;;;;;;19.67;9.05;;;;;;;;;;5095181;28;20027;-69
2022/01/15 01:32:37;;;;;;;21.77;8.88;;;;;;;;;;5094655;28;20491;-68
2022/01/15 01:35:06;;;;;;;16.08;7.85;;;;;;;;;;5094686;28;20032;-68
2022/01/15 01:37:37;;;;;;;22.38;12.10;;;;;;;;;;5094802;28;20489;-68
2022/01/15 01:40:26;;;;;;;19.13;9.98;;;;;;;;;;5094880;28;20035;-68
2022/01/15 01:43:03;;;;;;;17.95;9.90;;;;;;;;;;5094757;28;20020;-68
2022/01/15 01:45:30;;;;;;;25.25;12.27;;;;;;;;;;5093675;28;20031;-68
2022/01/15 01:47:56;;;;;;;17.42;8.52;;;;;;;;;;5094737;28;20476;-68
2022/01/15 01:50:26;;;;;;;13.93;6.95;;;;;;;;;;5093356;28;20030;-68
2022/01/15 01:52:54;;;;;;;14.95;8.50;;;;;;;;;;5094312;28;20027;-68
2022/01/15 01:55:22;;;;;;;18.95;8.85;;;;;;;;;;5094616;28;20022;-68
2022/01/15 01:57:49;;;;;;;22.15;10.63;;;;;;;;;;5094557;28;20020;-68
2022/01/15 02:00:18;;;;;;;25.75;10.68;;;;;;;;;;5093723;28;20048;-68
2022/01/15 02:02:45;;;;;;;17.35;9.75;;;;;;;;;;5094688;28;20387;-68
2022/01/15 02:05:11;;;;;;;21.45;10.38;;;;;;;;;;5094362;28;20357;-69
2022/01/15 02:07:38;;;;;;;19.10;8.98;;;;;;;;;;5093901;28;20024;-69
2022/01/15 02:10:09;;;;;;;16.73;8.25;;;;;;;;;;5094634;28;20091;-69
2022/01/15 02:12:36;;;;;;;18.15;8.55;;;;;;;;;;5093910;28;20031;-69
2022/01/15 02:15:36;;;;;;;20.63;10.05;;;;;;;;;;5094378;28;20024;-69
2022/01/15 02:18:03;;;;;;;15.55;8.07;;;;;;;;;;5060970;28;20507;-69
2022/01/15 02:25:46;;;;;;;13.02;6.95;;;;;;;;;;5094373;28;20081;-69
2022/01/15 02:28:12;;;;;;;12.77;6.95;;;;;;;;;;5093630;28;20020;-69
2022/01/15 02:30:39;;;;;;;12.40;5.97;;;;;;;;;;5093947;28;20381;-69
2022/01/15 02:33:05;;;;;;;14.00;6.40;;;;;;;;;;5093894;28;20384;-69
2022/01/15 02:35:32;;;;;;;13.35;5.55;;;;;;;;;;5093516;28;20031;-69
2022/01/15 02:38:02;;;;;;;11.95;4.95;;;;;;;;;;5093848;28;20024;-69
2022/01/15 02:40:28;;;;;;;10.68;5.18;;;;;;;;;;5093768;28;20107;-69
2022/01/15 02:42:56;;;;;;;9.35;4.20;;;;;;;;;;5093377;28;20153;-69
2022/01/15 02:45:23;;;;;;;12.27;5.47;;;;;;;;;;5093723;28;20500;-69
2022/01/15 02:48:02;;;;;;;8.93;4.60;;;;;;;;;;5093307;28;20471;-69
2022/01/15 02:50:29;;;;;;;10.50;3.90;;;;;;;;;;5093936;28;20016;-69
2022/01/15 02:52:55;;;;;;;9.93;4.15;;;;;;;;;;5093597;28;20031;-69
2022/01/15 02:55:22;;;;;;;9.63;4.53;;;;;;;;;;5091790;28;20026;-69
2022/01/15 02:57:48;;;;;;;9.00;4.65;;;;;;;;;;5093632;28;20035;-69
2022/01/15 03:00:14;;;;;;;8.90;4.20;;;;;;;;;;5093406;28;20101;-69
2022/01/15 03:02:40;;;;;;;10.82;4.68;;;;;;;;;;5093118;28;20492;-70
2022/01/15 03:05:07;;;;;;;7.65;4.07;;;;;;;;;;5093735;28;20071;-69
2022/01/15 03:07:34;;;;;;;9.65;4.28;;;;;;;;;;5093735;28;20396;-69
2022/01/15 03:10:00;;;;;;;7.30;3.78;;;;;;;;;;5093113;28;20016;-69
2022/01/15 03:12:26;;;;;;;8.20;3.33;;;;;;;;;;5093591;28;20020;-69
2022/01/15 03:14:55;;;;;;;8.23;3.42;;;;;;;;;;5093401;28;20032;-70
2022/01/15 03:17:22;;;;;;;10.43;3.47;;;;;;;;;;5093192;28;20020;-69
2022/01/15 03:19:48;;;;;;;9.55;4.25;;;;;;;;;;5093350;28;20095;-69
2022/01/15 03:22:14;;;;;;;9.43;3.90;;;;;;;;;;5093469;28;20039;-69
2022/01/15 03:24:40;;;;;;;11.23;4.20;;;;;;;;;;5092973;28;20024;-69
2022/01/15 03:27:06;;;;;;;9.90;4.18;;;;;;;;;;5093505;28;20035;-69
2022/01/15 03:29:33;;;;;;;8.93;4.00;;;;;;;;;;5093314;28;20027;-69
2022/01/15 03:31:59;;;;;;;10.23;4.60;;;;;;;;;;5092910;28;20476;-69
2022/01/15 03:34:25;;;;;;;8.98;4.35;;;;;;;;;;5093562;28;20047;-69
2022/01/15 03:36:52;;;;;;;9.80;4.22;;;;;;;;;;5091990;28;20509;-70
2022/01/15 03:39:18;;;;;;;12.13;3.30;;;;;;;;;;5092742;28;20024;-69
2022/01/15 03:41:45;;;;;;;8.48;3.63;;;;;;;;;;5093377;28;20028;-69
2022/01/15 03:44:11;;;;;;;9.77;3.95;;;;;;;;;;5091776;28;20357;-69
2022/01/15 03:46:37;;;;;;;9.25;4.15;;;;;;;;;;5093206;28;20024;-69
2022/01/15 03:49:03;;;;;;;11.10;4.70;;;;;;;;;;5093189;28;20024;-69
2022/01/15 03:51:30;;;;;;;9.38;4.15;;;;;;;;;;5091493;28;20024;-69
2022/01/15 03:53:56;;;;;;;12.65;4.60;;;;;;;;;;5093219;28;20447;-70
2022/01/15 03:56:22;;;;;;;10.70;4.90;;;;;;;;;;5091851;28;20016;-68
2022/01/15 03:58:48;;;;;;;9.48;4.13;;;;;;;;;;5092721;28;20028;-67
2022/01/15 04:01:14;;;;;;;7.28;3.60;;;;;;;;;;5091460;28;20551;-68
2022/01/15 04:03:41;;;;;;;11.32;5.22;;;;;;;;;;5093050;28;20044;-68
2022/01/15 04:06:07;;;;;;;10.57;4.82;;;;;;;;;;5092696;28;20433;-68
2022/01/15 04:08:33;;;;;;;13.05;5.38;;;;;;;;;;5094523;28;20024;-68
2022/01/15 04:11:00;;;;;;;9.45;4.78;;;;;;;;;;5096569;28;20387;-68
2022/01/15 04:13:26;;;;;;;9.43;5.03;;;;;;;;;;5096104;28;20016;-68
2022/01/15 04:15:53;;;;;;;9.20;4.18;;;;;;;;;;5096534;28;20024;-68
2022/01/15 04:18:21;;;;;;;12.50;4.65;;;;;;;;;;5096421;28;20474;-68
2022/01/15 04:20:48;;;;;;;10.85;5.10;;;;;;;;;;5095883;28;20086;-68
2022/01/15 04:23:14;;;;;;;8.10;4.05;;;;;;;;;;5096425;28;20020;-68
2022/01/15 04:25:40;;;;;;;8.50;4.10;;;;;;;;;;5096319;28;20073;-68
2022/01/15 04:28:10;;;;;;;11.15;4.60;;;;;;;;;;5095768;28;20021;-68
2022/01/15 04:30:37;;;;;;;8.40;3.85;;;;;;;;;;5096125;28;20026;-68
2022/01/15 04:33:03;;;;;;;8.13;4.20;;;;;;;;;;5096114;28;20020;-68
2022/01/15 04:35:29;;;;;;;9.50;4.38;;;;;;;;;;5095629;28;20020;-68
2022/01/15 04:38:03;;;;;;;8.68;3.58;;;;;;;;;;5096039;28;20024;-68
2022/01/15 04:40:29;;;;;;;12.68;4.88;;;;;;;;;;5094270;28;20032;-68
2022/01/15 04:42:55;;;;;;;10.05;4.82;;;;;;;;;;5095951;28;20028;-68
2022/01/15 04:45:21;;;;;;;9.70;4.22;;;;;;;;;;5096043;28;20031;-68
2022/01/15 04:47:48;;;;;;;6.72;3.35;;;;;;;;;;5095619;28;20039;-68
2022/01/15 04:50:16;;;;;;;6.35;2.70;;;;;;;;;;5095833;28;20059;-69
2022/01/15 04:52:43;;;;;;;8.55;3.20;;;;;;;;;;5095787;28;20073;-69
2022/01/15 04:55:10;;;;;;;8.27;3.55;;;;;;;;;;5095351;28;20035;-68
2022/01/15 04:57:36;;;;;;;7.90;3.38;;;;;;;;;;5095676;28;20070;-68
2022/01/15 05:00:08;;;;;;;11.23;4.45;;;;;;;;;;5095578;28;20123;-71
2022/01/15 05:02:34;;;;;;;10.68;4.88;;;;;;;;;;5095218;28;20069;-69
2022/01/15 05:05:00;;;;;;;8.90;4.15;;;;;;;;;;5095601;28;20479;-71
2022/01/15 05:07:27;;;;;;;12.85;4.32;;;;;;;;;;5095520;28;20024;-71
2022/01/15 05:09:53;;;;;;;12.15;4.40;;;;;;;;;;5095208;28;20353;-69
2022/01/15 05:14:51;;;;;;;10.95;4.53;;;;;;;;;;5095516;28;20030;-70
2022/01/15 05:17:18;;;;;;;11.55;4.95;;;;;;;;;;5094974;28;20031;-69
2022/01/15 05:19:44;;;;;;;8.52;4.13;;;;;;;;;;5095446;28;20028;-69
2022/01/15 05:22:10;;;;;;;10.57;4.93;;;;;;;;;;5095190;28;20032;-69
2022/01/15 05:24:36;;;;;;;8.35;4.45;;;;;;;;;;5094830;28;20020;-70
2022/01/15 05:27:03;;;;;;;13.25;6.28;;;;;;;;;;5095165;28;20028;-71
2022/01/15 05:29:29;;;;;;;16.95;6.25;;;;;;;;;;5094666;28;20511;-69
2022/01/15 05:31:55;;;;;;;15.50;5.80;;;;;;;;;;5095276;28;20024;-69
2022/01/15 05:34:21;;;;;;;10.82;5.28;;;;;;;;;;5094802;28;20476;-68
2022/01/15 05:36:48;;;;;;;9.65;4.78;;;;;;;;;;5094477;28;20090;-68
2022/01/15 05:39:14;;;;;;;9.82;5.78;;;;;;;;;;5094869;28;20031;-69
2022/01/15 05:41:40;;;;;;;10.00;5.10;;;;;;;;;;5094743;28;20078;-69
2022/01/15 05:44:06;;;;;;;11.50;5.18;;;;;;;;;;5094564;28;20024;-69
2022/01/15 05:46:34;;;;;;;10.02;5.70;;;;;;;;;;5094850;28;20020;-69
2022/01/15 05:49:01;;;;;;;11.63;5.70;;;;;;;;;;5094699;28;20027;-68
2022/01/15 05:51:30;;;;;;;10.15;5.15;;;;;;;;;;5094300;28;20024;-69
2022/01/15 05:54:00;;;;;;;9.38;4.93;;;;;;;;;;5094546;28;20016;-69
2022/01/15 05:56:26;;;;;;;20.70;5.88;;;;;;;;;;5094458;28;20023;-68
2022/01/15 05:58:53;;;;;;;12.93;6.10;;;;;;;;;;5094044;28;20388;-69
2022/01/15 06:01:19;;;;;;;14.95;6.80;;;;;;;;;;5092893;28;20044;-69
2022/01/15 06:03:45;;;;;;;11.45;6.05;;;;;;;;;;5094504;28;20107;-69
2022/01/15 06:06:11;;;;;;;10.85;6.32;;;;;;;;;;5093947;28;20060;-69
2022/01/15 06:08:38;;;;;;;11.52;5.88;;;;;;;;;;5094517;28;20024;-69
2022/01/15 06:11:04;;;;;;;14.20;7.10;;;;;;;;;;5094242;28;20095;-69
2022/01/15 06:13:30;;;;;;;16.45;8.50;;;;;;;;;;5093882;28;20452;-69
2022/01/15 06:15:56;;;;;;;13.55;7.40;;;;;;;;;;5094348;28;20077;-69
2022/01/15 06:18:23;;;;;;;13.35;7.93;;;;;;;;;;5094178;28;20020;-69
2022/01/15 06:20:49;;;;;;;14.93;8.27;;;;;;;;;;5092342;28;20036;-70
2022/01/15 06:23:15;;;;;;;19.70;9.00;;;;;;;;;;5094307;28;20027;-68
2022/01/15 06:25:41;;;;;;;18.38;8.95;;;;;;;;;;5093847;28;20476;-68
2022/01/15 06:28:08;;;;;;;16.73;8.80;;;;;;;;;;5094464;28;20035;-68
2022/01/15 06:30:34;;;;;;;15.90;8.00;;;;;;;;;;5093731;28;20384;-68
2022/01/15 06:33:00;;;;;;;16.25;8.07;;;;;;;;;;5093527;28;20097;-70
2022/01/15 06:35:26;;;;;;;26.70;13.30;;;;;;;;;;5094211;28;20373;-69
2022/01/15 06:37:53;;;;;;;17.10;10.25;;;;;;;;;;5094367;28;20082;-69
2022/01/15 06:40:19;;;;;;;18.10;9.90;;;;;;;;;;5092028;28;20039;-69
2022/01/15 06:42:45;;;;;;;15.77;9.10;;;;;;;;;;5093899;28;20027;-69
2022/01/15 06:45:12;;;;;;;17.50;9.20;;;;;;;;;;5093705;28;20529;-69
2022/01/15 06:47:38;;;;;;;20.73;9.23;;;;;;;;;;5093272;28;20028;-70
2022/01/15 06:50:05;;;;;;;16.40;8.35;;;;;;;;;;5093911;28;20478;-69
2022/01/15 06:52:35;;;;;;;16.45;8.50;;;;;;;;;;5093925;28;20380;-70
2022/01/15 06:55:01;;;;;;;14.52;7.70;;;;;;;;;;5093244;28;20021;-69
2022/01/15 06:57:27;;;;;;;15.90;9.20;;;;;;;;;;5093622;28;20024;-69
2022/01/15 06:59:54;;;;;;;16.52;9.63;;;;;;;;;;5093483;28;20381;-69
2022/01/15 07:02:20;;;;;;;18.10;8.95;;;;;;;;;;5093386;28;20103;-70
2022/01/15 07:04:47;;;;;;;20.05;9.70;;;;;;;;;;5093484;28;20024;-69
2022/01/15 07:07:13;;;;;;;17.80;9.68;;;;;;;;;;5093690;28;20028;-70
2022/01/15 07:09:39;;;;;;;20.92;9.88;;;;;;;;;;5092971;28;20464;-69
2022/01/15 07:12:06;;;;;;;17.75;8.48;;;;;;;;;;5093873;28;20039;-69
2022/01/15 07:14:32;;;;;;;18.73;9.13;;;;;;;;;;5093637;28;20050;-69
2022/01/15 07:16:58;;;;;;;17.77;10.00;;;;;;;;;;5093072;28;20116;-69
2022/01/15 07:19:24;;;;;;;22.83;10.90;;;;;;;;;;5093253;28;20027;-69
2022/01/15 07:21:51;;;;;;;21.80;10.95;;;;;;;;;;5093410;28;20091;-69
2022/01/15 07:24:17;;;;;;;14.63;9.35;;;;;;;;;;5092864;28;20027;-69
2022/01/15 07:26:43;;;;;;;20.55;10.15;;;;;;;;;;5093275;28;20020;-69
2022/01/15 07:29:15;;;;;;;17.13;10.68;;;;;;;;;;5092871;28;20426;-69
2022/01/15 07:31:42;;;;;;;17.60;9.63;;;;;;;;;;5093331;28;20016;-69
2022/01/15 07:34:08;;;;;;;17.90;9.68;;;;;;;;;;5093255;28;20028;-69
2022/01/15 07:36:34;;;;;;;16.42;8.77;;;;;;;;;;5092966;28;20444;-69
2022/01/15 07:39:01;;;;;;;20.20;10.70;;;;;;;;;;5093164;28;20031;-69
2022/01/15 07:41:27;;;;;;;20.10;9.05;;;;;;;;;;5093366;28;20032;-69
2022/01/15 07:43:53;;;;;;;18.98;10.63;;;;;;;;;;5096350;28;20027;-69
2022/01/15 07:46:20;;;;;;;21.10;11.32;;;;;;;;;;5097068;28;20020;-71
2022/01/15 07:48:46;;;;;;;17.88;10.20;;;;;;;;;;5095719;28;20020;-69
2022/01/15 07:51:12;;;;;;;21.02;10.65;;;;;;;;;;5096639;28;20024;-70
2022/01/15 07:53:39;;;;;;;20.80;10.23;;;;;;;;;;5097071;28;20103;-70
2022/01/15 07:56:05;;;;;;;15.73;9.38;;;;;;;;;;5096835;28;20039;-69
2022/01/15 07:58:31;;;;;;;19.45;11.38;;;;;;;;;;5096349;28;20031;-69
2022/01/15 08:00:58;;;;;;;18.17;10.23;;;;;;;;;;5096488;28;20052;-69
2022/01/15 08:03:24;;;;;;;14.27;8.73;;;;;;;;;;5096915;28;20050;-70
2022/01/15 08:05:50;;;;;;;16.90;10.02;;;;;;;;;;5096249;28;20107;-70
2022/01/15 08:08:16;;;;;;;30.42;17.75;;;;;;;;;;5096668;28;20402;-69
2022/01/15 08:10:44;;;;;;;18.15;12.10;;;;;;;;;;5096567;28;20035;-69
2022/01/15 08:13:10;;;;;;;22.55;11.23;;;;;;;;;;5096179;28;20048;-69
2022/01/15 08:15:37;;;;;;;15.23;10.20;;;;;;;;;;5096581;28;20020;-69
2022/01/15 08:18:04;;;;;;;19.15;11.15;;;;;;;;;;5096522;28;20034;-69
2022/01/15 08:20:30;;;;;;;27.08;16.58;;;;;;;;;;5096041;28;20089;-71
2022/01/15 08:22:56;;;;;;;21.77;11.73;;;;;;;;;;5096326;28;20510;-69
2022/01/15 08:25:24;;;;;;;18.75;12.02;;;;;;;;;;5095909;28;20028;-70
2022/01/15 08:27:52;;;;;;;17.75;10.80;;;;;;;;;;5094947;28;20106;-70
2022/01/15 08:30:19;;;;;;;19.25;11.30;;;;;;;;;;5096261;28;20387;-69
2022/01/15 08:32:46;;;;;;;17.98;11.18;;;;;;;;;;5096289;28;20028;-70
2022/01/15 08:35:12;;;;;;;18.20;9.80;;;;;;;;;;5096233;28;20052;-69
2022/01/15 08:37:39;;;;;;;17.65;9.82;;;;;;;;;;5096122;28;20020;-70
2022/01/15 08:40:06;;;;;;;18.55;10.32;;;;;;;;;;5095536;28;20056;-69
2022/01/15 08:42:32;;;;;;;22.05;11.02;;;;;;;;;;5096005;28;20028;-70
2022/01/15 08:44:58;;;;;;;19.60;12.02;;;;;;;;;;5096155;28;20024;-70
2022/01/15 08:47:25;;;;;;;19.45;9.75;;;;;;;;;;5095695;28;20103;-70
2022/01/15 08:49:52;;;;;;;16.15;9.13;;;;;;;;;;5095781;28;20032;-70
2022/01/15 08:52:18;;;;;;;13.68;7.45;;;;;;;;;;5095851;28;20024;-70
2022/01/15 08:54:44;;;;;;;14.07;8.48;;;;;;;;;;5095102;28;20016;-70
2022/01/15 08:57:10;;;;;;;14.65;8.45;;;;;;;;;;5095715;28;20097;-70
2022/01/15 08:59:37;;;;;;;17.23;9.90;;;;;;;;;;5095430;28;20550;-70
2022/01/15 09:02:03;;;;;;;16.55;10.05;;;;;;;;;;5095260;28;20500;-71
2022/01/15 09:04:29;;;;;;;17.00;8.90;;;;;;;;;;5095630;28;20024;-70
2022/01/15 09:06:55;;;;;;;13.13;7.10;;;;;;;;;;5094174;28;20028;-70
2022/01/15 09:09:22;;;;;;;14.80;8.32;;;;;;;;;;5095243;28;20065;-70
2022/01/15 09:11:48;;;;;;;22.80;8.38;;;;;;;;;;5094071;28;20464;-70
2022/01/15 09:14:14;;;;;;;15.60;8.60;;;;;;;;;;5095423;28;20024;-69
2022/01/15 09:16:40;;;;;;;16.40;8.48;;;;;;;;;;5094900;28;20016;-69
2022/01/15 09:19:07;;;;;;;22.05;11.80;;;;;;;;;;5095516;28;20387;-70
2022/01/15 09:21:33;;;;;;;21.10;10.38;;;;;;;;;;5094818;28;20066;-71
2022/01/15 09:24:00;;;;;;;22.05;12.32;;;;;;;;;;5095338;28;20030;-71
2022/01/15 09:26:48;;;;;;;15.82;9.00;;;;;;;;;;5093979;28;20029;-70
2022/01/15 09:32:00;;;;;;;21.75;10.45;;;;;;;;;;5095382;28;20039;-70
2022/01/15 09:34:27;;;;;;;21.13;11.52;;;;;;;;;;5094958;28;20020;-70
2022/01/15 09:36:53;;;;;;;17.35;9.15;;;;;;;;;;5094594;28;20535;-70
2022/01/15 09:39:20;;;;;;;25.33;11.80;;;;;;;;;;5094896;28;20027;-71
2022/01/15 09:41:48;;;;;;;20.65;11.73;;;;;;;;;;5094814;28;20090;-71
2022/01/15 09:44:15;;;;;;;23.05;13.98;;;;;;;;;;5094478;28;20020;-69
2022/01/15 09:46:41;;;;;;;18.45;10.23;;;;;;;;;;5094792;28;20031;-70
2022/01/15 09:49:10;;;;;;;17.33;9.57;;;;;;;;;;5094851;28;20427;-70
2022/01/15 09:51:36;;;;;;;18.63;9.82;;;;;;;;;;5094271;28;20538;-70
2022/01/15 09:54:03;;;;;;;15.32;9.05;;;;;;;;;;5093361;28;20039;-70
2022/01/15 09:56:29;;;;;;;20.52;11.32;;;;;;;;;;5094549;28;20480;-70
2022/01/15 09:58:57;;;;;;;16.08;9.50;;;;;;;;;;5094161;28;20056;-70
2022/01/15 10:01:24;;;;;;;18.23;9.55;;;;;;;;;;5094250;28;20048;-70
2022/01/15 10:03:50;;;;;;;18.02;9.98;;;;;;;;;;5094145;28;20104;-70
2022/01/15 10:06:16;;;;;;;16.60;9.80;;;;;;;;;;5092361;28;20093;-71
2022/01/15 10:08:58;;;;;;;18.48;9.93;;;;;;;;;;5094337;28;20020;-70
2022/01/15 10:11:41;;;;;;;15.10;8.73;;;;;;;;;;5094024;28;20388;-70
2022/01/15 10:14:23;;;;;;;17.30;10.40;;;;;;;;;;5094288;28;20040;-70
2022/01/15 10:16:49;;;;;;;17.70;9.48;;;;;;;;;;5094408;28;20318;-70
2022/01/15 10:19:48;;;;;;;18.77;11.27;;;;;;;;;;5093688;28;20035;-70
2022/01/15 10:22:21;;;;;;;16.88;9.10;;;;;;;;;;5060327;28;20040;-71
2022/01/15 10:25:07;;;;;;;18.52;10.15;;;;;;;;;;5094143;28;20028;-70
2022/01/15 10:27:37;;;;;;;14.95;9.10;;;;;;;;;;5094024;28;20097;-70
2022/01/15 10:30:20;;;;;;;16.33;8.60;;;;;;;;;;5094020;28;20429;-70
2022/01/15 10:32:52;;;;;;;17.58;9.70;;;;;;;;;;5093541;28;20027;-70
2022/01/15 10:35:19;;;;;;;18.92;10.95;;;;;;;;;;5093924;28;20553;-70
2022/01/15 10:37:53;;;;;;;16.80;8.77;;;;;;;;;;5093860;28;20124;-70
2022/01/15 10:40:20;;;;;;;19.67;11.57;;;;;;;;;;5093489;28;20032;-70
2022/01/15 10:42:55;;;;;;;17.38;10.15;;;;;;;;;;5093726;28;20421;-70
2022/01/15 10:45:22;;;;;;;22.50;10.98;;;;;;;;;;5093999;28;20031;-70
2022/01/15 10:47:49;;;;;;;20.38;10.85;;;;;;;;;;5093410;28;20491;-70
2022/01/15 10:50:35;;;;;;;18.67;10.60;;;;;;;;;;5093694;28;20080;-71
2022/01/15 10:53:10;;;;;;;19.65;11.43;;;;;;;;;;5093225;28;20024;-70
2022/01/15 10:55:36;;;;;;;15.25;7.82;;;;;;;;;;5093634;28;20024;-70
2022/01/15 10:58:04;;;;;;;20.73;10.13;;;;;;;;;;5092293;28;20024;-70
2022/01/15 11:00:38;;;;;;;20.35;10.90;;;;;;;;;;5092987;28;20075;-71
2022/01/15 11:04:36;;;;;;;14.48;8.02;;;;;;;;;;5111352;27;20911;-71
2022/01/15 11:07:10;;;;;;;14.55;8.13;;;;;;;;;;5109547;28;20036;-70
2022/01/15 11:09:37;;;;;;;18.35;9.63;;;;;;;;;;5111552;28;20414;-71
2022/01/15 11:13:32;;;;;;;17.98;10.05;;;;;;;;;;5111668;27;20441;-71
2022/01/15 11:16:00;;;;;;;14.38;8.60;;;;;;;;;;5110854;28;20034;-70
2022/01/15 11:18:31;;;;;;;13.35;7.70;;;;;;;;;;5111249;28;20054;-71
2022/01/15 11:20:59;;;;;;;18.33;10.38;;;;;;;;;;5111253;28;20027;-70
2022/01/15 11:24:57;;;;;;;16.45;9.50;;;;;;;;;;5111346;27;20397;-69
2022/01/15 11:31:40;;;;;;;21.40;11.57;;;;;;;;;;5111619;27;20397;-71
2022/01/15 11:34:06;;;;;;;18.23;10.60;;;;;;;;;;5111314;28;20048;-71
2022/01/15 11:36:40;;;;;;;18.73;11.38;;;;;;;;;;5110914;28;20028;-72
2022/01/15 11:39:06;;;;;;;;;;;;;;;;;;5111952;28;20077;-70
2022/01/15 11:41:32;;;;;;;15.23;9.60;;;;;;;;;;5111108;28;19904;-70
2022/01/15 11:44:18;;;;;;;16.38;10.00;;;;;;;;;;5110740;28;20024;-70
2022/01/15 11:46:52;;;;;;;21.52;10.77;;;;;;;;;;5111121;28;20034;-70
2022/01/15 11:49:24;;;;;;;17.52;10.07;;;;;;;;;;5110533;28;20016;-70
2022/01/15 11:53:36;;;;;;;13.90;7.60;;;;;;;;;;5111464;27;20401;-71
2022/01/15 11:57:25;;;;;;;17.88;10.82;;;;;;;;;;5111050;27;20435;-71
2022/01/15 12:05:22;;;;;;;16.13;8.55;;;;;;;;;;5110885;27;20389;-71
2022/01/15 12:09:44;;;;;;;22.00;10.98;;;;;;;;;;5111255;27;20768;-70
2022/01/15 12:12:51;;;;;;;16.80;8.85;;;;;;;;;;5111525;27;20392;-71
2022/01/15 12:15:24;;;;;;;13.18;8.88;;;;;;;;;;5111428;28;20397;-71
2022/01/15 12:17:51;;;;;;;18.73;11.43;;;;;;;;;;5111386;28;20015;-70
2022/01/15 12:20:18;;;;;;;16.58;9.50;;;;;;;;;;5111395;28;20123;-71
2022/01/15 12:22:46;;;;;;;18.02;8.27;;;;;;;;;;5111222;28;20020;-72
2022/01/15 12:25:13;;;;;;;18.13;11.18;;;;;;;;;;5110783;28;20020;-71
2022/01/15 12:29:35;;;;;;;15.63;8.95;;;;;;;;;;5111340;27;20388;-71
2022/01/15 12:32:51;;;;;;;15.75;8.63;;;;;;;;;;5152343;27;20398;-72
2022/01/15 12:35:22;;;;;;;16.48;9.57;;;;;;;;;;5131807;28;20033;-71
2022/01/15 12:37:59;;;;;;;15.00;9.25;;;;;;;;;;5131946;28;20046;-70
2022/01/15 12:40:29;;;;;;;15.73;9.02;;;;;;;;;;5131363;28;20425;-70
2022/01/15 12:42:59;;;;;;;16.13;9.65;;;;;;;;;;5131688;28;20026;-71
2022/01/15 12:45:26;;;;;;;18.77;11.07;;;;;;;;;;5131764;28;20502;-71
2022/01/15 12:49:56;;;;;;;13.32;7.53;;;;;;;;;;5111515;27;20427;-71
2022/01/15 12:55:50;;;;;;;15.63;9.20;;;;;;;;;;5111595;27;20458;-71
2022/01/15 12:58:17;;;;;;;13.30;7.50;;;;;;;;;;5109967;28;20028;-71
2022/01/15 13:00:44;;;;;;;17.05;8.07;;;;;;;;;;5110808;28;20059;-71
2022/01/15 13:05:21;;;;;;;19.00;9.18;;;;;;;;;;5111556;27;20505;-73
2022/01/15 13:09:47;;;;;;;19.40;11.60;;;;;;;;;;5112188;27;20450;-71
2022/01/15 13:12:13;;;;;;;21.35;11.65;;;;;;;;;;5111365;28;20475;-71
2022/01/15 13:14:43;;;;;;;16.73;9.93;;;;;;;;;;5110884;28;20107;-70
2022/01/15 13:18:58;;;;;;;18.58;9.90;;;;;;;;;;5111983;27;20397;-71
2022/01/15 13:21:28;;;;;;;17.02;9.40;;;;;;;;;;5110866;28;20237;-71
2022/01/15 13:26:28;;;;;;;17.95;10.32;;;;;;;;;;5111480;27;20400;-71
2022/01/15 13:29:45;;;;;;;16.52;9.82;;;;;;;;;;5111029;27;20435;-71
2022/01/15 13:32:11;;;;;;;16.65;10.30;;;;;;;;;;5111353;28;20028;-72
2022/01/15 13:36:22;;;;;;;16.05;9.85;;;;;;;;;;5111003;27;20393;-70
2022/01/15 13:41:36;;;;;;;20.52;11.93;;;;;;;;;;5111421;27;20446;-71
2022/01/15 13:45:35;;;;;;;16.35;9.98;;;;;;;;;;5111996;27;20927;-71
2022/01/15 13:48:12;;;;;;;17.55;10.63;;;;;;;;;;5111335;28;20101;-72
2022/01/15 13:55:03;;;;;;;17.95;11.82;;;;;;;;;;5111439;27;20385;-71
2022/01/15 14:00:42;;;;;;;26.90;10.80;;;;;;;;;;5111960;27;20396;-71
2022/01/15 14:07:25;;;;;;;18.67;10.55;;;;;;;;;;5111860;27;20397;-72
2022/01/15 14:11:14;;;;;;;16.00;9.48;;;;;;;;;;5110988;27;20404;-71
2022/01/15 14:13:41;;;;;;;16.45;9.70;;;;;;;;;;5111450;28;20093;-71
2022/01/15 14:16:23;;;;;;;15.25;9.18;;;;;;;;;;5111241;28;20020;-70
2022/01/15 14:21:42;;;;;;;19.10;9.60;;;;;;;;;;5111406;28;20085;-70
2022/01/15 14:25:23;;;;;;;17.95;10.02;;;;;;;;;;5111321;27;20430;-71
2022/01/15 14:28:01;;;;;;;19.83;11.43;;;;;;;;;;5111595;28;20028;-71
2022/01/15 14:30:27;;;;;;;18.85;10.93;;;;;;;;;;5111813;28;20024;-72
2022/01/15 14:32:54;;;;;;;22.35;12.88;;;;;;;;;;5110855;28;20375;-71
2022/01/15 14:36:09;;;;;;;20.13;12.23;;;;;;;;;;5112066;27;20871;-71
2022/01/15 14:39:46;;;;;;;26.08;14.63;;;;;;;;;;5111045;27;20427;-71
2022/01/15 14:42:12;;;;;;;21.45;12.65;;;;;;;;;;5110047;28;20088;-71
2022/01/15 14:44:39;;;;;;;17.17;9.98;;;;;;;;;;5111260;28;20062;-71
2022/01/15 14:47:05;;;;;;;22.13;11.35;;;;;;;;;;5110911;28;20030;-70
2022/01/15 14:49:31;;;;;;;18.13;10.90;;;;;;;;;;5111119;28;20098;-70
2022/01/15 14:51:57;;;;;;;19.70;11.02;;;;;;;;;;5111102;28;20019;-70
2022/01/15 14:54:23;;;;;;;22.10;12.57;;;;;;;;;;5109249;28;20491;-71
2022/01/15 15:02:00;;;;;;;21.95;11.93;;;;;;;;;;5111703;27;20381;-70
2022/01/15 15:05:37;;;;;;;20.60;12.57;;;;;;;;;;5111426;27;20422;-71
2022/01/15 15:09:43;;;;;;;20.80;12.55;;;;;;;;;;5112026;27;20385;-71
2022/01/15 15:12:10;;;;;;;22.80;13.30;;;;;;;;;;5111327;28;20361;-70
2022/01/15 15:14:38;;;;;;;26.13;13.98;;;;;;;;;;5110924;28;20012;-71
2022/01/15 15:17:04;;;;;;;30.33;18.63;;;;;;;;;;5111335;28;20027;-70
2022/01/15 15:19:30;;;;;;;32.72;20.10;;;;;;;;;;5111346;28;20016;-70
2022/01/15 15:21:56;;;;;;;32.28;18.75;;;;;;;;;;5110788;28;20490;-71
2022/01/15 15:24:23;;;;;;;23.50;14.98;;;;;;;;;;5111109;28;20102;-72
2022/01/15 15:26:49;;;;;;;23.60;13.32;;;;;;;;;;5111117;28;20020;-71
2022/01/15 15:29:17;;;;;;;21.48;15.68;;;;;;;;;;5110469;28;20031;-71
2022/01/15 15:31:44;;;;;;;30.38;17.98;;;;;;;;;;5111090;28;20012;-71
2022/01/15 15:34:10;;;;;;;34.83;20.52;;;;;;;;;;5110797;28;20027;-71
2022/01/15 15:36:37;;;;;;;29.45;17.73;;;;;;;;;;5109439;28;20024;-71
2022/01/15 15:39:03;;;;;;;36.47;20.52;;;;;;;;;;5110730;28;20126;-71
2022/01/15 15:41:31;;;;;;;28.77;17.10;;;;;;;;;;5109107;28;20468;-71
2022/01/15 15:43:58;;;;;;;30.67;17.73;;;;;;;;;;5110696;28;20016;-71
2022/01/15 15:46:24;;;;;;;29.83;17.10;;;;;;;;;;5110878;28;20020;-70
2022/01/15 15:48:51;;;;;;;39.15;21.15;;;;;;;;;;5110053;28;20032;-70
2022/01/15 15:51:18;;;;;;;43.78;21.38;;;;;;;;;;5110585;28;20024;-70
2022/01/15 15:53:44;;;;;;;30.63;16.98;;;;;;;;;;5110561;28;20082;-71
2022/01/15 15:56:11;;;;;;;33.97;18.63;;;;;;;;;;5109938;28;20024;-69
2022/01/15 15:58:37;;;;;;;33.13;19.55;;;;;;;;;;5110540;28;20024;-69